createdAt,value
2018-10-07T00:01:26.914Z,84.60
2018-10-07T00:03:55.567Z,97.47
2018-10-07T00:06:24.965Z,105.67
2018-10-07T00:08:53.874Z,89.63
2018-10-07T00:11:22.565Z,94.23
2018-10-07T00:13:51.254Z,109.17
2018-10-07T00:16:19.868Z,98.77
2018-10-07T00:18:48.564Z,106.60
2018-10-07T00:21:17.181Z,106.67
2018-10-07T00:23:46.008Z,112.97
2018-10-07T00:26:14.576Z,107.87
2018-10-07T00:28:43.252Z,106.40
2018-10-07T00:31:12.011Z,114.82
2018-10-07T00:33:40.682Z,108.47
2018-10-07T00:36:09.319Z,115.82
2018-10-07T00:38:37.969Z,108.07
2018-10-07T00:41:06.870Z,121.53
2018-10-07T00:43:35.695Z,116.33
2018-10-07T00:46:04.472Z,117.30
2018-10-07T00:48:33.195Z,119.30
2018-10-07T00:51:01.860Z,104.45
2018-10-07T00:53:30.546Z,121.50
2018-10-07T00:55:59.658Z,119.10
2018-10-07T00:58:28.343Z,120.08
2018-10-07T01:00:57.138Z,105.55
2018-10-07T01:03:25.914Z,111.08
2018-10-07T01:05:54.488Z,123.27
2018-10-07T01:08:23.184Z,117.43
2018-10-07T01:10:51.797Z,98.93
2018-10-07T01:13:20.559Z,111.83
2018-10-07T01:15:49.255Z,105.50
2018-10-07T01:18:17.922Z,104.30
2018-10-07T01:20:46.745Z,109.20
2018-10-07T01:23:15.391Z,94.75
2018-10-07T01:25:44.194Z,107.97
2018-10-07T01:28:12.833Z,112.87
2018-10-07T01:30:41.552Z,94.70
2018-10-07T01:33:10.144Z,97.40
2018-10-07T01:35:38.834Z,99.60
2018-10-07T01:38:07.479Z,104.93
2018-10-07T01:40:36.218Z,93.72
2018-10-07T01:43:04.795Z,86.30
2018-10-07T01:45:33.459Z,92.70
2018-10-07T01:48:02.360Z,94.50
2018-10-07T01:50:31.154Z,93.33
2018-10-07T01:52:59.816Z,98.55
2018-10-07T01:55:28.404Z,80.30
2018-10-07T01:57:56.984Z,75.47
2018-10-07T02:00:25.674Z,74.83
2018-10-07T02:02:54.764Z,69.87
2018-10-07T02:05:26.344Z,64.37
2018-10-07T02:07:55.444Z,66.22
2018-10-07T02:10:24.084Z,67.07
2018-10-07T02:12:52.667Z,55.78
2018-10-07T02:15:21.377Z,51.57
2018-10-07T02:17:50.009Z,55.23
2018-10-07T02:20:18.620Z,59.58
2018-10-07T02:22:47.326Z,59.70
2018-10-07T02:25:15.922Z,53.48
2018-10-07T02:27:44.546Z,76.50
2018-10-07T02:30:13.229Z,51.00
2018-10-07T02:32:41.988Z,57.70
2018-10-07T02:35:10.704Z,51.02
2018-10-07T02:37:39.324Z,48.98
2018-10-07T02:40:07.972Z,31.12
2018-10-07T02:42:36.614Z,33.53
2018-10-07T02:45:05.650Z,38.55
2018-10-07T02:47:34.495Z,33.02
2018-10-07T02:50:13.260Z,31.45
2018-10-07T02:52:48.574Z,32.13
2018-10-07T02:55:20.750Z,29.42
2018-10-07T02:57:51.068Z,38.17
2018-10-07T03:00:19.939Z,33.90
2018-10-07T03:02:48.957Z,28.90
2018-10-07T03:05:17.619Z,23.40
2018-10-07T03:07:46.736Z,25.25
2018-10-07T03:10:15.467Z,24.50
2018-10-07T03:12:44.145Z,27.32
2018-10-07T03:15:12.918Z,19.65
2018-10-07T03:17:41.657Z,35.83
2018-10-07T03:20:10.349Z,28.85
2018-10-07T03:22:38.981Z,23.80
2018-10-07T03:25:07.601Z,26.07
2018-10-07T03:27:36.427Z,23.70
2018-10-07T03:30:05.311Z,19.27
2018-10-07T03:32:34.399Z,18.00
2018-10-07T03:35:03.031Z,16.32
2018-10-07T03:37:31.667Z,12.07
2018-10-07T03:40:00.269Z,10.75
2018-10-07T03:42:28.839Z,13.43
2018-10-07T03:44:57.403Z,5.95
2018-10-07T03:47:26.003Z,11.50
2018-10-07T03:49:54.676Z,14.05
2018-10-07T03:52:23.302Z,7.65
2018-10-07T03:54:51.888Z,11.45
2018-10-07T03:57:20.505Z,8.93
2018-10-07T03:59:49.258Z,7.72
2018-10-07T04:02:17.957Z,12.78
2018-10-07T04:04:46.571Z,9.33
2018-10-07T04:07:15.162Z,10.20
2018-10-07T04:09:43.791Z,6.55
2018-10-07T04:12:12.415Z,9.80
2018-10-07T04:14:41.046Z,7.65
2018-10-07T04:17:09.686Z,11.08
2018-10-07T04:19:38.300Z,7.42
2018-10-07T04:22:07.014Z,5.37
2018-10-07T04:24:37.046Z,11.85
2018-10-07T04:27:05.653Z,10.00
2018-10-07T04:29:34.285Z,4.20
2018-10-07T04:32:03.089Z,4.58
2018-10-07T04:34:31.725Z,2.65
2018-10-07T04:37:00.350Z,2.95
2018-10-07T04:39:29.015Z,5.37
2018-10-07T04:41:57.715Z,4.12
2018-10-07T04:44:26.391Z,3.17
2018-10-07T04:46:55.123Z,3.08
2018-10-07T04:49:23.739Z,4.87
2018-10-07T04:51:52.385Z,3.20
2018-10-07T04:54:21.014Z,5.15
2018-10-07T04:56:49.661Z,3.02
2018-10-07T04:59:18.226Z,5.65
2018-10-07T05:01:46.895Z,11.70
2018-10-07T05:04:15.587Z,2.85
2018-10-07T05:06:44.243Z,2.08
2018-10-07T05:09:12.976Z,2.12
2018-10-07T05:11:42.527Z,3.22
2018-10-07T05:14:12.066Z,5.83
2018-10-07T05:16:44.939Z,6.50
2018-10-07T05:19:13.646Z,4.05
2018-10-07T05:21:42.319Z,3.05
2018-10-07T05:24:10.930Z,2.80
2018-10-07T05:26:39.798Z,2.92
2018-10-07T05:29:08.606Z,4.22
2018-10-07T05:31:37.395Z,3.00
2018-10-07T05:34:06.263Z,4.00
2018-10-07T05:36:34.973Z,7.92
2018-10-07T05:39:04.760Z,5.30
2018-10-07T05:41:33.367Z,3.50
2018-10-07T05:44:02.005Z,5.95
2018-10-07T05:46:30.683Z,2.08
2018-10-07T05:48:59.382Z,4.40
2018-10-07T05:51:28.018Z,7.37
2018-10-07T05:53:56.649Z,2.02
2018-10-07T05:56:25.329Z,8.40
2018-10-07T05:58:56.402Z,10.35
2018-10-07T06:01:31.541Z,4.40
2018-10-07T06:04:11.245Z,3.62
2018-10-07T06:06:40.268Z,5.83
2018-10-07T06:09:13.999Z,11.85
2018-10-07T06:11:42.797Z,6.12
2018-10-07T06:14:22.841Z,1.92
2018-10-07T06:16:51.538Z,1.72
2018-10-07T06:19:20.185Z,2.17
2018-10-07T06:21:48.774Z,1.32
2018-10-07T06:24:17.434Z,10.68
2018-10-07T06:26:46.122Z,3.62
2018-10-07T06:29:14.728Z,2.05
2018-10-07T06:31:43.765Z,4.33
2018-10-07T06:34:12.335Z,3.10
2018-10-07T06:36:41.001Z,2.65
2018-10-07T06:39:09.633Z,4.30
2018-10-07T06:41:38.318Z,3.37
2018-10-07T06:44:06.908Z,1.15
2018-10-07T06:46:35.645Z,2.30
2018-10-07T06:49:04.553Z,7.05
2018-10-07T06:51:33.127Z,3.27
2018-10-07T06:54:01.809Z,2.90
2018-10-07T06:56:30.451Z,2.83
2018-10-07T06:58:59.122Z,3.72
2018-10-07T07:01:27.745Z,3.42
2018-10-07T07:03:56.534Z,3.25
2018-10-07T07:06:31.699Z,3.33
2018-10-07T07:09:00.401Z,3.25
2018-10-07T07:11:29.413Z,1.57
2018-10-07T07:13:58.026Z,2.20
2018-10-07T07:16:26.865Z,5.72
2018-10-07T07:18:55.437Z,7.05
2018-10-07T07:21:24.122Z,1.37
2018-10-07T07:23:52.735Z,2.67
2018-10-07T07:26:21.343Z,1.95
2018-10-07T07:28:50.025Z,1.85
2018-10-07T07:31:18.716Z,1.98
2018-10-07T07:33:47.549Z,1.80
2018-10-07T07:36:16.089Z,3.15
2018-10-07T07:38:44.919Z,1.52
2018-10-07T07:41:13.498Z,1.92
2018-10-07T07:43:42.100Z,0.90
2018-10-07T07:46:10.771Z,5.37
2018-10-07T07:48:39.451Z,2.87
2018-10-07T07:51:08.094Z,1.00
2018-10-07T07:53:36.726Z,4.97
2018-10-07T07:56:05.336Z,0.80
2018-10-07T07:58:33.970Z,3.98
2018-10-07T08:01:02.620Z,1.17
2018-10-07T08:03:31.249Z,1.22
2018-10-07T08:05:59.898Z,0.80
2018-10-07T08:08:28.457Z,2.65
2018-10-07T08:10:57.063Z,1.57
2018-10-07T08:13:25.697Z,2.62
2018-10-07T08:15:54.339Z,11.70
2018-10-07T08:18:22.966Z,2.30
2018-10-07T08:20:51.762Z,3.30
2018-10-07T08:23:20.407Z,2.05
2018-10-07T08:25:49.122Z,1.62
2018-10-07T08:28:17.719Z,4.20
2018-10-07T08:30:46.393Z,1.32
2018-10-07T08:33:14.976Z,2.77
2018-10-07T08:35:43.580Z,1.27
2018-10-07T08:38:12.191Z,1.25
2018-10-07T08:40:40.827Z,15.05
2018-10-07T08:43:09.450Z,4.62
2018-10-07T08:45:38.097Z,3.50
2018-10-07T08:48:06.762Z,2.35
2018-10-07T08:50:35.423Z,4.50
2018-10-07T08:53:04.072Z,2.15
2018-10-07T08:55:32.697Z,1.80
2018-10-07T08:58:01.711Z,0.82
2018-10-07T09:00:30.355Z,2.98
2018-10-07T09:02:59.015Z,1.52
2018-10-07T09:05:27.607Z,1.80
2018-10-07T09:07:56.227Z,2.83
2018-10-07T09:10:24.839Z,3.20
2018-10-07T09:12:53.656Z,1.40
2018-10-07T09:15:22.302Z,1.35
2018-10-07T09:17:51.054Z,2.08
2018-10-07T09:20:19.707Z,1.30
2018-10-07T09:22:48.430Z,2.45
2018-10-07T09:25:17.081Z,0.80
2018-10-07T09:27:45.977Z,1.37
2018-10-07T09:30:14.663Z,1.57
2018-10-07T09:32:43.425Z,4.28
2018-10-07T09:35:13.928Z,2.40
2018-10-07T09:37:42.822Z,3.25
2018-10-07T09:40:12.647Z,2.20
2018-10-07T09:42:41.266Z,1.30
2018-10-07T09:45:10.034Z,0.80
2018-10-07T09:47:39.056Z,0.80
2018-10-07T09:50:07.743Z,1.42
2018-10-07T09:52:36.282Z,1.85
2018-10-07T09:55:04.972Z,0.90
2018-10-07T09:57:33.517Z,1.55
2018-10-07T10:00:02.194Z,2.77
2018-10-07T10:02:30.813Z,2.87
2018-10-07T10:04:59.870Z,1.82
2018-10-07T10:07:28.673Z,3.50
2018-10-07T10:09:57.353Z,5.05
2018-10-07T10:12:26.014Z,2.05
2018-10-07T10:14:54.756Z,2.12
2018-10-07T10:17:23.895Z,3.22
2018-10-07T10:19:56.689Z,6.15
2018-10-07T10:23:01.249Z,1.42
2018-10-07T10:27:41.969Z,1.77
2018-10-07T10:30:19.233Z,2.83
2018-10-07T10:32:55.784Z,2.25
2018-10-07T10:36:38.441Z,1.72
2018-10-07T10:39:13.851Z,1.00
2018-10-07T10:41:50.513Z,1.70
2018-10-07T10:44:22.531Z,1.50
2018-10-07T10:46:59.614Z,1.10
2018-10-07T10:49:41.767Z,0.95
2018-10-07T10:52:20.280Z,1.20
2018-10-07T10:54:59.939Z,1.20
2018-10-07T10:57:35.609Z,1.75
2018-10-07T11:00:08.152Z,6.33
2018-10-07T11:04:48.774Z,1.17
2018-10-07T11:07:22.081Z,3.83
2018-10-07T11:09:59.072Z,2.15
2018-10-07T11:13:37.238Z,1.45
2018-10-07T11:18:20.937Z,2.08
2018-10-07T11:23:08.645Z,3.45
2018-10-07T11:27:54.526Z,4.00
2018-10-07T11:30:39.011Z,1.10
2018-10-07T11:36:30.901Z,1.83
2018-10-07T11:39:07.422Z,1.45
2018-10-07T11:42:17.487Z,2.17
2018-10-07T11:45:21.130Z,7.78
2018-10-07T11:48:23.755Z,4.00
2018-10-07T11:52:03.380Z,2.02
2018-10-07T11:55:03.799Z,2.05
2018-10-07T11:57:32.554Z,5.72
2018-10-07T12:00:01.746Z,1.25
2018-10-07T12:02:30.566Z,1.70
2018-10-07T12:04:59.317Z,2.35
2018-10-07T12:07:29.685Z,1.27
2018-10-07T12:09:58.327Z,3.08
2018-10-07T12:12:26.980Z,2.22
2018-10-07T12:14:55.974Z,1.43
2018-10-07T12:17:24.691Z,6.60
2018-10-07T12:19:53.488Z,3.08
2018-10-07T12:22:22.157Z,1.90
2018-10-07T12:24:50.757Z,1.87
2018-10-07T12:27:19.581Z,4.10
2018-10-07T12:29:48.270Z,2.10
2018-10-07T12:32:16.943Z,4.70
2018-10-07T12:34:45.589Z,3.75
2018-10-07T12:37:14.231Z,3.33
2018-10-07T12:39:42.925Z,4.17
2018-10-07T12:42:11.633Z,4.00
2018-10-07T12:44:40.242Z,3.07
2018-10-07T12:47:08.956Z,2.43
2018-10-07T12:49:37.647Z,8.20
2018-10-07T12:52:06.454Z,0.80
2018-10-07T12:54:35.294Z,3.50
2018-10-07T12:57:03.993Z,1.67
2018-10-07T12:59:32.699Z,3.00
2018-10-07T13:02:01.407Z,7.10
2018-10-07T13:04:29.988Z,2.20
2018-10-07T13:06:58.618Z,9.00
2018-10-07T13:09:27.478Z,3.33
2018-10-07T13:11:56.165Z,4.40
2018-10-07T13:14:24.773Z,1.40
2018-10-07T13:16:53.467Z,2.93
2018-10-07T13:19:22.486Z,2.97
2018-10-07T13:21:51.154Z,2.40
2018-10-07T13:24:19.770Z,1.40
2018-10-07T13:26:48.480Z,4.90
2018-10-07T13:29:17.171Z,1.53
2018-10-07T13:31:45.808Z,1.93
2018-10-07T13:34:14.488Z,2.97
2018-10-07T13:36:43.190Z,3.70
2018-10-07T13:39:12.761Z,3.73
2018-10-07T13:41:41.794Z,2.93
2018-10-07T13:44:10.581Z,8.13
2018-10-07T13:46:39.384Z,2.93
2018-10-07T13:49:08.104Z,2.10
2018-10-07T13:51:36.747Z,3.77
2018-10-07T13:54:05.339Z,3.83
2018-10-07T13:56:40.485Z,7.10
2018-10-07T13:59:09.172Z,4.97
2018-10-07T14:01:37.859Z,3.07
2018-10-07T14:04:06.502Z,1.83
2018-10-07T14:06:35.223Z,2.40
2018-10-07T14:09:04.479Z,4.50
2018-10-07T14:11:33.067Z,5.63
2018-10-07T14:14:01.710Z,4.90
2018-10-07T14:16:30.463Z,2.40
2018-10-07T14:18:59.104Z,2.87
2018-10-07T14:21:28.101Z,2.70
2018-10-07T14:23:56.934Z,3.50
2018-10-07T14:26:25.518Z,2.30
2018-10-07T14:28:54.126Z,2.20
2018-10-07T14:31:22.777Z,1.57
2018-10-07T14:33:51.440Z,6.30
2018-10-07T14:36:20.049Z,2.03
2018-10-07T14:38:48.680Z,6.03
2018-10-07T14:41:17.295Z,3.40
2018-10-07T14:43:46.176Z,3.00
2018-10-07T14:46:14.849Z,1.50
2018-10-07T14:48:43.442Z,2.77
2018-10-07T14:51:12.109Z,3.30
2018-10-07T14:53:40.892Z,2.63
2018-10-07T14:56:10.196Z,4.30
2018-10-07T14:58:39.368Z,4.53
2018-10-07T15:01:08.247Z,2.67
2018-10-07T15:03:37.112Z,6.53
2018-10-07T15:06:06.492Z,5.43
2018-10-07T15:08:35.684Z,5.20
2018-10-07T15:11:04.398Z,4.10
2018-10-07T15:13:33.054Z,3.47
2018-10-07T15:16:01.939Z,3.97
2018-10-07T15:18:30.587Z,2.73
2018-10-07T15:20:59.281Z,4.53
2018-10-07T15:23:27.923Z,4.20
2018-10-07T15:25:56.759Z,1.43
2018-10-07T15:28:25.413Z,3.40
2018-10-07T15:30:54.227Z,7.08
2018-10-07T15:33:22.863Z,6.13
2018-10-07T15:35:51.623Z,5.23
2018-10-07T15:38:20.284Z,2.05
2018-10-07T15:40:49.436Z,5.90
2018-10-07T15:43:18.062Z,2.60
2018-10-07T15:45:46.914Z,5.08
2018-10-07T15:48:15.516Z,4.20
2018-10-07T15:50:44.254Z,5.27
2018-10-07T15:53:12.983Z,6.60
2018-10-07T15:55:41.667Z,1.80
2018-10-07T15:58:10.331Z,9.80
2018-10-07T16:00:38.972Z,2.20
2018-10-07T16:03:07.932Z,3.67
2018-10-07T16:05:36.543Z,5.90
2018-10-07T16:08:07.684Z,2.20
2018-10-07T16:10:36.344Z,3.30
2018-10-07T16:13:05.083Z,3.93
2018-10-07T16:15:33.806Z,3.57
2018-10-07T16:18:02.480Z,4.23
2018-10-07T16:20:31.134Z,3.10
2018-10-07T16:22:59.805Z,5.10
2018-10-07T16:25:28.442Z,4.47
2018-10-07T16:27:57.103Z,9.97
2018-10-07T16:30:25.694Z,8.73
2018-10-07T16:32:54.438Z,5.35
2018-10-07T16:35:23.087Z,7.78
2018-10-07T16:37:51.851Z,2.40
2018-10-07T16:40:20.551Z,5.42
2018-10-07T16:42:49.191Z,2.00
2018-10-07T16:45:18.047Z,4.33
2018-10-07T16:47:46.737Z,6.47
2018-10-07T16:50:15.518Z,5.90
2018-10-07T16:52:44.502Z,5.65
2018-10-07T16:55:13.128Z,6.47
2018-10-07T16:57:41.946Z,5.70
2018-10-07T17:00:10.816Z,6.40
2018-10-07T17:02:39.498Z,2.50
2018-10-07T17:05:08.302Z,3.15
2018-10-07T17:07:36.931Z,5.00
2018-10-07T17:10:05.812Z,4.05
2018-10-07T17:12:34.533Z,9.18
2018-10-07T17:15:03.254Z,5.30
2018-10-07T17:17:31.904Z,2.42
2018-10-07T17:20:00.649Z,3.87
2018-10-07T17:22:29.282Z,5.35
2018-10-07T17:24:58.067Z,2.35
2018-10-07T17:27:26.765Z,5.58
2018-10-07T17:29:55.462Z,5.80
2018-10-07T17:32:24.153Z,2.62
2018-10-07T17:34:52.733Z,2.77
2018-10-07T17:37:21.390Z,3.85
2018-10-07T17:39:50.216Z,3.65
2018-10-07T17:42:18.893Z,3.72
2018-10-07T17:44:47.598Z,4.60
2018-10-07T17:47:16.347Z,7.10
2018-10-07T17:49:45.080Z,3.02
2018-10-07T17:52:13.798Z,4.37
2018-10-07T17:54:42.566Z,5.10
2018-10-07T17:57:11.236Z,7.12
2018-10-07T17:59:39.949Z,7.85
2018-10-07T18:02:08.847Z,7.35
2018-10-07T18:04:37.654Z,2.95
2018-10-07T18:07:06.340Z,4.28
2018-10-07T18:09:35.056Z,4.12
2018-10-07T18:12:03.744Z,7.42
2018-10-07T18:14:32.532Z,6.67
2018-10-07T18:17:01.192Z,4.80
2018-10-07T18:19:29.817Z,2.95
2018-10-07T18:21:58.640Z,8.10
2018-10-07T18:24:27.248Z,4.80
2018-10-07T18:26:55.869Z,3.20
2018-10-07T18:29:24.600Z,6.80
2018-10-07T18:31:53.289Z,3.37
2018-10-07T18:34:22.262Z,3.70
2018-10-07T18:36:50.797Z,7.30
2018-10-07T18:39:19.376Z,5.33
2018-10-07T18:41:48.062Z,8.03
2018-10-07T18:44:16.612Z,6.62
2018-10-07T18:46:45.255Z,6.55
2018-10-07T18:49:13.918Z,4.10
2018-10-07T18:51:42.688Z,6.95
2018-10-07T18:54:11.626Z,3.92
2018-10-07T18:56:40.699Z,2.10
2018-10-07T18:59:09.508Z,4.37
2018-10-07T19:01:38.280Z,6.97
2018-10-07T19:04:07.000Z,3.10
2018-10-07T19:06:36.345Z,7.80
2018-10-07T19:09:07.807Z,5.83
2018-10-07T19:11:36.607Z,4.90
2018-10-07T19:14:05.335Z,5.35
2018-10-07T19:16:33.949Z,3.47
2018-10-07T19:19:09.220Z,5.85
2018-10-07T19:21:37.805Z,2.25
2018-10-07T19:24:06.468Z,13.55
2018-10-07T19:26:35.212Z,7.40
2018-10-07T19:29:03.979Z,3.47
2018-10-07T19:31:32.710Z,4.25
2018-10-07T19:34:01.557Z,7.42
2018-10-07T19:36:30.205Z,10.90
2018-10-07T19:38:58.914Z,10.32
2018-10-07T19:41:27.637Z,7.47
2018-10-07T19:43:56.395Z,5.00
2018-10-07T19:46:25.097Z,10.20
2018-10-07T19:48:53.716Z,7.62
2018-10-07T19:51:22.463Z,20.80
2018-10-07T19:53:51.227Z,7.78
2018-10-07T19:56:20.018Z,8.40
2018-10-07T19:58:48.659Z,3.72
2018-10-07T20:01:17.317Z,7.60
2018-10-07T20:03:45.912Z,6.45
2018-10-07T20:06:14.731Z,8.03
2018-10-07T20:08:43.362Z,8.28
2018-10-07T20:11:12.109Z,5.83
2018-10-07T20:13:40.756Z,5.65
2018-10-07T20:16:09.343Z,10.43
2018-10-07T20:18:38.026Z,6.95
2018-10-07T20:21:06.783Z,6.67
2018-10-07T20:23:35.404Z,5.22
2018-10-07T20:26:04.902Z,11.78
2018-10-07T20:28:33.576Z,7.17
2018-10-07T20:31:02.332Z,4.60
2018-10-07T20:33:30.962Z,10.58
2018-10-07T20:35:59.633Z,8.30
2018-10-07T20:38:28.518Z,4.00
2018-10-07T20:40:57.306Z,4.12
2018-10-07T20:43:25.938Z,6.22
2018-10-07T20:45:54.694Z,14.63
2018-10-07T20:48:23.420Z,6.53
2018-10-07T20:50:52.162Z,4.55
2018-10-07T20:53:20.855Z,5.87
2018-10-07T20:55:49.599Z,6.47
2018-10-07T20:58:18.256Z,5.95
2018-10-07T21:00:46.942Z,5.75
2018-10-07T21:03:15.656Z,9.55
2018-10-07T21:05:44.285Z,5.08
2018-10-07T21:08:13.041Z,6.08
2018-10-07T21:10:41.763Z,8.50
2018-10-07T21:13:10.400Z,5.33
2018-10-07T21:15:39.125Z,8.13
2018-10-07T21:18:07.767Z,7.62
2018-10-07T21:20:36.592Z,9.65
2018-10-07T21:23:05.294Z,5.00
2018-10-07T21:25:34.015Z,3.45
2018-10-07T21:28:02.722Z,5.60
2018-10-07T21:30:31.375Z,10.68
2018-10-07T21:33:00.031Z,4.72
2018-10-07T21:35:28.673Z,6.62
2018-10-07T21:37:57.965Z,7.78
2018-10-07T21:40:26.643Z,10.25
2018-10-07T21:42:55.328Z,6.62
2018-10-07T21:45:23.957Z,7.22
2018-10-07T21:47:52.701Z,4.30
2018-10-07T21:50:21.333Z,6.78
2018-10-07T21:52:49.964Z,5.15
2018-10-07T21:55:18.583Z,13.32
2018-10-07T21:57:47.298Z,7.20
2018-10-07T22:00:15.961Z,7.33
2018-10-07T22:02:44.647Z,4.55
2018-10-07T22:05:13.232Z,3.90
2018-10-07T22:07:41.808Z,5.33
2018-10-07T22:10:10.438Z,5.95
2018-10-07T22:12:39.129Z,7.80
2018-10-07T22:15:07.731Z,10.03
2018-10-07T22:17:36.466Z,5.50
2018-10-07T22:20:05.156Z,5.53
2018-10-07T22:22:33.776Z,8.08
2018-10-07T22:25:02.415Z,11.05
2018-10-07T22:27:31.025Z,5.78
2018-10-07T22:29:59.573Z,6.70
2018-10-07T22:32:28.180Z,8.58
2018-10-07T22:34:56.758Z,6.78
2018-10-07T22:37:25.420Z,6.20
2018-10-07T22:39:54.003Z,5.03
2018-10-07T22:42:22.696Z,5.10
2018-10-07T22:44:51.338Z,6.72
2018-10-07T22:47:20.013Z,7.95
2018-10-07T22:49:48.772Z,8.38
2018-10-07T22:52:17.411Z,7.08
2018-10-07T22:54:45.979Z,4.62
2018-10-07T22:57:14.584Z,4.25
2018-10-07T22:59:43.177Z,10.15
2018-10-07T23:02:11.710Z,4.53
2018-10-07T23:04:40.644Z,6.65
2018-10-07T23:07:09.295Z,5.83
2018-10-07T23:09:37.933Z,6.50
2018-10-07T23:12:06.799Z,10.15
2018-10-07T23:14:35.446Z,6.40
2018-10-07T23:17:04.120Z,13.03
2018-10-07T23:19:32.773Z,6.08
2018-10-07T23:22:01.512Z,9.63
2018-10-07T23:24:30.169Z,8.15
2018-10-07T23:26:58.796Z,14.55
2018-10-07T23:29:27.441Z,4.90
2018-10-07T23:31:55.979Z,8.13
2018-10-07T23:34:24.793Z,8.88
2018-10-07T23:36:53.328Z,6.72
2018-10-07T23:39:21.969Z,15.95
2018-10-07T23:41:50.642Z,8.60
2018-10-07T23:44:19.213Z,6.25
2018-10-07T23:46:47.837Z,11.40
2018-10-07T23:49:16.410Z,7.72
2018-10-07T23:51:45.155Z,9.68
2018-10-07T23:54:13.791Z,6.00
2018-10-07T23:56:42.457Z,6.17
2018-10-07T23:59:11.092Z,9.90
